createdAt,value
2018-12-01T00:02:25.763Z,95.50
2018-12-01T00:04:56.264Z,96.30
2018-12-01T00:07:28.563Z,95.90
2018-12-01T00:09:57.953Z,95.10
2018-12-01T00:12:30.545Z,95.40
2018-12-01T00:15:03.094Z,95.90
2018-12-01T00:17:33.165Z,95.00
2018-12-01T00:20:03.711Z,95.20
2018-12-01T00:22:34.738Z,95.40
2018-12-01T00:25:07.412Z,95.70
2018-12-01T00:27:41.941Z,95.40
2018-12-01T00:30:15.906Z,95.20
2018-12-01T00:32:49.104Z,94.70
2018-12-01T00:35:19.668Z,94.70
2018-12-01T00:37:50.491Z,94.60
2018-12-01T00:40:22.148Z,93.10
2018-12-01T00:42:51.757Z,93.90
2018-12-01T00:45:23.913Z,93.80
2018-12-01T00:47:55.284Z,93.40
2018-12-01T00:50:26.026Z,93.70
2018-12-01T00:52:55.283Z,93.40
2018-12-01T00:55:24.503Z,93.70
2018-12-01T00:57:57.895Z,93.60
2018-12-01T01:00:28.887Z,94.00
2018-12-01T01:03:03.299Z,94.00
2018-12-01T01:05:32.798Z,93.70
2018-12-01T01:08:03.541Z,93.90
2018-12-01T01:10:34.729Z,94.10
2018-12-01T01:13:07.495Z,93.90
2018-12-01T01:15:38.470Z,94.20
2018-12-01T01:18:07.735Z,94.50
2018-12-01T01:20:38.687Z,94.40
2018-12-01T01:23:09.438Z,94.80
2018-12-01T01:25:41.172Z,94.10
2018-12-01T01:28:10.380Z,93.50
2018-12-01T01:30:39.856Z,94.00
2018-12-01T01:33:20.126Z,93.20
2018-12-01T01:35:50.387Z,93.50
2018-12-01T01:38:19.996Z,93.80
2018-12-01T01:41:10.135Z,93.70
2018-12-01T01:43:40.369Z,94.30
2018-12-01T01:46:12.017Z,94.20
2018-12-01T01:48:42.772Z,94.20
2018-12-01T01:51:15.107Z,94.20
2018-12-01T01:53:46.022Z,95.00
2018-12-01T01:56:15.255Z,95.30
2018-12-01T01:58:44.720Z,95.90
2018-12-01T02:01:16.954Z,95.90
2018-12-01T02:03:47.442Z,96.10
2018-12-01T02:06:16.682Z,96.00
2018-12-01T02:08:48.062Z,95.10
2018-12-01T02:11:18.831Z,95.50
2018-12-01T02:13:49.721Z,95.90
2018-12-01T02:16:18.947Z,95.70
2018-12-01T02:18:49.711Z,95.20
2018-12-01T02:21:20.378Z,95.10
2018-12-01T02:23:49.602Z,94.30
2018-12-01T02:26:19.544Z,94.60
2018-12-01T02:28:49.492Z,95.60
2018-12-01T02:31:25.140Z,96.30
2018-12-01T02:34:09.095Z,96.20
2018-12-01T02:36:39.156Z,95.20
2018-12-01T02:39:12.858Z,95.10
2018-12-01T02:41:53.552Z,94.70
2018-12-01T02:44:37.491Z,95.50
2018-12-01T02:47:10.452Z,95.70
2018-12-01T02:49:40.583Z,96.60
2018-12-01T02:52:11.557Z,97.10
2018-12-01T02:54:42.729Z,96.80
2018-12-01T02:57:13.977Z,97.30
2018-12-01T02:59:46.561Z,96.60
2018-12-01T03:02:16.034Z,96.50
2018-12-01T03:04:45.366Z,97.00
2018-12-01T03:07:18.853Z,97.60
2018-12-01T03:09:48.194Z,97.90
2018-12-01T03:12:18.623Z,97.00
2018-12-01T03:14:48.277Z,96.70
2018-12-01T03:17:21.023Z,96.70
2018-12-01T03:19:52.360Z,96.50
2018-12-01T03:22:26.507Z,96.40
2018-12-01T03:24:58.538Z,95.50
2018-12-01T03:27:35.522Z,95.70
2018-12-01T03:30:10.576Z,94.70
2018-12-01T03:32:43.685Z,94.90
2018-12-01T03:35:13.961Z,95.10
2018-12-01T03:37:46.282Z,94.40
2018-12-01T03:40:18.531Z,94.60
2018-12-01T03:42:47.851Z,94.50
2018-12-01T03:45:19.884Z,93.50
2018-12-01T03:47:50.651Z,93.90
2018-12-01T03:50:23.748Z,92.40
2018-12-01T03:52:56.786Z,92.70
2018-12-01T03:55:28.758Z,92.90
2018-12-01T03:58:01.144Z,92.20
2018-12-01T04:00:31.190Z,92.70
2018-12-01T04:03:02.414Z,93.10
2018-12-01T04:05:37.146Z,92.80
2018-12-01T04:08:17.392Z,92.60
2018-12-01T04:11:04.928Z,91.80
2018-12-01T04:16:38.836Z,92.20
2018-12-01T04:37:55.038Z,93.00
2018-12-01T04:40:26.474Z,92.90
2018-12-01T04:46:06.802Z,93.70
2018-12-01T04:57:14.169Z,93.60
2018-12-01T05:00:02.323Z,93.40
2018-12-01T05:05:58.848Z,93.70
2018-12-01T05:08:30.401Z,93.50
2018-12-01T05:11:06.549Z,94.00
2018-12-01T05:13:37.650Z,94.70
2018-12-01T05:16:08.341Z,94.40
2018-12-01T05:18:37.595Z,94.40
2018-12-01T05:21:08.357Z,95.60
2018-12-01T05:23:37.635Z,92.80
2018-12-01T05:26:06.936Z,93.00
2018-12-01T05:28:38.055Z,93.10
2018-12-01T05:31:08.403Z,94.30
2018-12-01T05:33:37.618Z,94.60
2018-12-01T05:36:06.846Z,94.40
2018-12-01T05:38:38.414Z,95.00
2018-12-01T05:41:10.296Z,95.10
2018-12-01T05:43:39.529Z,94.50
2018-12-01T05:46:09.716Z,94.90
2018-12-01T05:48:41.281Z,94.50
2018-12-01T05:51:13.791Z,95.20
2018-12-01T05:53:43.024Z,94.80
2018-12-01T05:56:13.210Z,95.20
2018-12-01T05:58:46.107Z,95.40
2018-12-01T06:01:21.417Z,94.90
2018-12-01T06:03:52.472Z,94.60
2018-12-01T06:06:24.161Z,95.70
2018-12-01T06:08:53.507Z,95.00
2018-12-01T06:11:24.042Z,95.50
2018-12-01T06:13:58.014Z,95.20
2018-12-01T06:19:07.849Z,95.10
2018-12-01T06:21:40.458Z,95.20
2018-12-01T06:24:11.301Z,95.00
2018-12-01T06:26:44.471Z,94.90
2018-12-01T06:29:18.450Z,94.50
2018-12-01T06:31:50.050Z,94.60
2018-12-01T06:34:23.420Z,96.50
2018-12-01T06:36:56.388Z,96.60
2018-12-01T06:39:33.048Z,97.10
2018-12-01T06:45:05.221Z,97.00
2018-12-01T06:47:35.175Z,97.60
2018-12-01T06:50:09.774Z,97.70
2018-12-01T06:52:45.995Z,97.50
2018-12-01T06:55:17.403Z,96.90
2018-12-01T07:00:36.069Z,97.30
2018-12-01T07:05:55.577Z,98.00
2018-12-01T07:08:36.468Z,98.40
2018-12-01T07:11:14.904Z,98.80
2018-12-01T07:19:33.539Z,98.40
2018-12-01T07:22:10.842Z,98.20
2018-12-01T07:24:42.818Z,98.50
2018-12-01T07:27:14.339Z,98.50
2018-12-01T07:29:44.617Z,98.40
2018-12-01T07:32:20.943Z,98.80
2018-12-01T07:34:51.142Z,98.50
2018-12-01T07:37:21.911Z,98.60
2018-12-01T07:39:51.958Z,99.10
2018-12-01T07:42:22.394Z,99.90
2018-12-01T07:44:53.754Z,99.40
2018-12-01T07:47:25.698Z,99.80
2018-12-01T07:49:54.950Z,99.30
2018-12-01T07:52:26.421Z,99.40
2018-12-01T07:54:57.730Z,99.70
2018-12-01T07:57:28.022Z,99.70
2018-12-01T07:59:57.847Z,99.60
2018-12-01T08:02:27.758Z,99.40
2018-12-01T08:04:58.598Z,99.30
2018-12-01T08:07:30.872Z,98.80
2018-12-01T08:10:07.114Z,98.60
2018-12-01T08:12:39.743Z,98.40
2018-12-01T08:15:12.299Z,98.40
2018-12-01T08:17:48.256Z,97.50
2018-12-01T08:20:21.706Z,98.20
2018-12-01T08:22:53.428Z,98.50
2018-12-01T08:25:26.321Z,98.20
2018-12-01T08:27:59.763Z,97.50
2018-12-01T08:30:34.803Z,97.90
2018-12-01T08:33:07.542Z,98.10
2018-12-01T08:35:38.263Z,98.00
2018-12-01T08:38:28.658Z,98.40
2018-12-01T09:08:27.198Z,92.50
2018-12-01T09:27:57.312Z,93.30
2018-12-01T09:30:29.015Z,92.30
2018-12-01T09:36:52.564Z,92.90
2018-12-01T09:39:37.234Z,91.60
2018-12-01T09:42:07.664Z,92.70
2018-12-01T09:44:38.766Z,91.70
2018-12-01T09:47:08.734Z,91.30
2018-12-01T09:49:39.173Z,88.60
2018-12-01T09:52:15.066Z,85.70
2018-12-01T09:54:44.825Z,84.60
2018-12-01T09:57:15.342Z,80.10
2018-12-01T09:59:45.097Z,81.50
2018-12-01T10:02:17.620Z,82.40
2018-12-01T10:04:48.581Z,79.10
2018-12-01T10:07:19.436Z,79.20
2018-12-01T10:09:51.608Z,79.20
2018-12-01T10:12:21.169Z,75.30
2018-12-01T10:14:51.998Z,72.30
2018-12-01T10:17:25.740Z,73.80
2018-12-01T10:19:58.643Z,73.00
2018-12-01T10:22:32.181Z,70.40
2018-12-01T10:25:05.603Z,72.60
2018-12-01T10:27:37.547Z,72.00
2018-12-01T10:30:12.366Z,72.00
2018-12-01T10:32:46.071Z,69.50
2018-12-01T10:35:17.181Z,71.50
2018-12-01T10:37:50.309Z,67.70
2018-12-01T10:40:21.197Z,65.80
2018-12-01T10:42:51.844Z,65.50
2018-12-01T10:45:22.568Z,66.70
2018-12-01T10:47:52.959Z,65.60
2018-12-01T10:50:26.331Z,65.70
2018-12-01T10:53:00.563Z,62.30
2018-12-01T10:55:34.225Z,65.00
2018-12-01T10:58:12.441Z,66.10
2018-12-01T11:00:48.901Z,68.00
2018-12-01T11:03:29.054Z,67.50
2018-12-01T11:05:59.971Z,64.30
2018-12-01T11:08:29.501Z,66.30
2018-12-01T11:10:58.999Z,65.20
2018-12-01T11:13:35.272Z,63.10
2018-12-01T11:16:07.348Z,63.20
2018-12-01T11:21:37.201Z,64.60
2018-12-01T11:24:08.569Z,65.40
2018-12-01T11:26:44.954Z,63.20
2018-12-01T11:29:14.728Z,62.80
2018-12-01T11:31:46.126Z,65.50
2018-12-01T11:34:15.481Z,65.90
2018-12-01T11:36:47.872Z,64.70
2018-12-01T11:39:17.507Z,65.10
2018-12-01T11:41:48.111Z,60.40
2018-12-01T11:44:18.381Z,61.60
2018-12-01T11:46:49.047Z,63.60
2018-12-01T11:49:21.231Z,60.80
2018-12-01T11:51:50.638Z,61.50
2018-12-01T11:54:24.855Z,59.50
2018-12-01T11:56:54.487Z,61.00
2018-12-01T11:59:25.206Z,60.90
2018-12-01T12:02:00.353Z,61.20
2018-12-01T12:04:26.460Z,60.10
2018-12-01T12:06:56.259Z,59.80
2018-12-01T12:09:33.726Z,60.20
2018-12-01T12:12:05.020Z,58.70
2018-12-01T12:14:34.982Z,57.70
2018-12-01T12:17:04.322Z,56.90
2018-12-01T12:19:33.737Z,57.70
2018-12-01T12:22:03.972Z,57.20
2018-12-01T12:24:34.083Z,57.20
2018-12-01T12:27:03.456Z,58.60
2018-12-01T12:29:33.916Z,59.10
2018-12-01T12:32:05.089Z,55.90
2018-12-01T12:34:34.506Z,59.20
2018-12-01T12:37:07.702Z,55.40
2018-12-01T12:39:37.676Z,55.60
2018-12-01T12:42:08.807Z,56.10
2018-12-01T12:44:41.785Z,55.40
2018-12-01T12:47:11.052Z,54.50
2018-12-01T12:49:42.836Z,51.00
2018-12-01T12:59:06.557Z,46.50
2018-12-01T13:01:37.778Z,43.50
2018-12-01T13:04:10.497Z,47.90
2018-12-01T13:06:42.393Z,47.80
2018-12-01T13:09:14.020Z,41.60
2018-12-01T13:11:48.910Z,43.50
2018-12-01T13:14:20.842Z,43.80
2018-12-01T13:16:51.086Z,42.10
2018-12-01T13:19:26.427Z,43.40
2018-12-01T13:22:09.141Z,45.00
2018-12-01T13:24:41.875Z,46.70
2018-12-01T13:27:20.643Z,45.50
2018-12-01T13:29:51.713Z,43.80
2018-12-01T13:32:28.197Z,43.70
2018-12-01T13:34:59.213Z,43.40
2018-12-01T13:37:28.767Z,40.50
2018-12-01T13:39:59.721Z,42.10
2018-12-01T13:42:32.854Z,40.60
2018-12-01T13:45:08.851Z,40.70
2018-12-01T13:47:39.726Z,38.50
2018-12-01T13:50:13.227Z,41.10
2018-12-01T13:52:45.421Z,40.20
2018-12-01T13:55:16.621Z,39.30
2018-12-01T13:57:45.977Z,42.00
2018-12-01T14:00:18.097Z,43.00
2018-12-01T14:02:48.073Z,41.50
2018-12-01T14:05:17.607Z,44.20
2018-12-01T14:07:47.025Z,40.50
2018-12-01T14:10:22.606Z,40.60
2018-12-01T14:12:53.288Z,42.00
2018-12-01T14:15:23.835Z,42.00
2018-12-01T14:17:53.251Z,43.00
2018-12-01T14:20:22.503Z,40.80
2018-12-01T14:22:52.185Z,39.60
2018-12-01T14:25:22.324Z,42.50
2018-12-01T14:27:59.783Z,39.00
2018-12-01T14:30:30.228Z,39.40
2018-12-01T14:32:59.719Z,44.70
2018-12-01T14:35:31.172Z,42.60
2018-12-01T14:38:03.315Z,44.00
2018-12-01T14:40:33.788Z,39.80
2018-12-01T14:43:03.024Z,42.30
2018-12-01T14:45:32.504Z,41.20
2018-12-01T14:48:01.868Z,42.00
2018-12-01T14:50:31.714Z,39.30
2018-12-01T14:53:01.757Z,41.10
2018-12-01T14:55:31.643Z,43.80
2018-12-01T14:58:01.651Z,47.50
2018-12-01T15:00:31.153Z,49.70
2018-12-01T15:03:03.363Z,47.70
2018-12-01T15:05:32.628Z,48.50
2018-12-01T15:08:01.879Z,46.90
2018-12-01T15:10:31.307Z,48.10
2018-12-01T15:13:00.691Z,49.50
2018-12-01T15:15:29.944Z,48.30
2018-12-01T15:17:59.650Z,46.50
2018-12-01T15:20:32.674Z,47.80
2018-12-01T15:23:02.664Z,46.90
2018-12-01T15:25:33.073Z,49.20
2018-12-01T15:28:02.597Z,50.90
2018-12-01T15:30:33.190Z,51.10
2018-12-01T15:33:14.733Z,53.70
2018-12-01T15:35:44.999Z,54.40
2018-12-01T15:38:14.872Z,57.10
2018-12-01T15:40:47.933Z,59.60
2018-12-01T15:43:17.357Z,65.50
2018-12-01T15:45:47.722Z,67.60
2018-12-01T15:48:18.323Z,69.20
2018-12-01T15:50:48.918Z,72.00
2018-12-01T15:53:18.323Z,72.00
2018-12-01T15:55:47.686Z,71.50
2018-12-01T15:58:17.003Z,73.10
2018-12-01T16:00:46.800Z,75.90
2018-12-01T16:03:17.017Z,73.70
2018-12-01T16:05:48.446Z,74.00
2018-12-01T16:08:18.669Z,77.10
2018-12-01T16:10:49.682Z,81.90
2018-12-01T16:13:21.480Z,82.30
2018-12-01T16:15:58.677Z,84.30
2018-12-01T16:18:32.652Z,81.60
2018-12-01T16:21:05.729Z,81.10
2018-12-01T16:23:36.665Z,81.70
2018-12-01T16:26:07.652Z,81.70
2018-12-01T16:28:39.815Z,81.00
2018-12-01T16:31:09.087Z,81.10
2018-12-01T16:33:46.671Z,78.80
2018-12-01T16:36:15.945Z,74.10
2018-12-01T16:38:46.323Z,78.60
2018-12-01T16:41:23.730Z,80.50
2018-12-01T16:43:54.584Z,79.50
2018-12-01T16:46:25.151Z,78.70
2018-12-01T16:48:54.851Z,74.90
2018-12-01T16:51:24.591Z,78.30
2018-12-01T16:53:54.948Z,82.70
2018-12-01T16:56:24.270Z,81.10
2018-12-01T16:58:57.339Z,84.30
2018-12-01T17:01:26.766Z,85.00
2018-12-01T17:03:56.531Z,79.70
2018-12-01T17:06:26.233Z,80.00
2018-12-01T17:08:56.927Z,79.10
2018-12-01T17:11:33.414Z,82.80
2018-12-01T17:14:07.955Z,85.70
2018-12-01T17:16:42.409Z,88.40
2018-12-01T17:19:16.818Z,89.10
2018-12-01T17:21:55.169Z,90.10
2018-12-01T17:24:25.841Z,82.60
2018-12-01T17:26:55.307Z,81.00
2018-12-01T17:29:30.106Z,80.50
2018-12-01T17:32:01.188Z,83.60
2018-12-01T17:34:31.981Z,82.20
2018-12-01T17:37:02.279Z,83.10
2018-12-01T17:39:32.182Z,83.60
2018-12-01T17:42:06.119Z,82.90
2018-12-01T17:44:45.912Z,81.60
2018-12-01T17:47:15.194Z,79.30
2018-12-01T17:49:46.271Z,76.70
2018-12-01T17:52:26.969Z,79.00
2018-12-01T17:54:57.259Z,79.40
2018-12-01T17:57:26.475Z,79.10
2018-12-01T17:59:56.354Z,80.50
2018-12-01T18:02:28.350Z,79.70
2018-12-01T18:04:57.640Z,77.70
2018-12-01T18:07:27.614Z,72.30
2018-12-01T18:09:56.898Z,71.70
2018-12-01T18:12:27.277Z,69.20
2018-12-01T18:15:38.726Z,71.50
2018-12-01T18:18:09.020Z,72.30
2018-12-01T18:20:38.552Z,77.50
2018-12-01T18:23:09.576Z,81.20
2018-12-01T18:25:46.240Z,83.80
2018-12-01T18:28:38.388Z,85.90
2018-12-01T18:31:17.814Z,85.00
2018-12-01T18:34:05.329Z,81.80
2018-12-01T18:36:38.458Z,77.40
2018-12-01T18:39:16.518Z,75.20
2018-12-01T18:41:46.970Z,75.50
2018-12-01T18:44:16.216Z,78.70
2018-12-01T18:46:47.263Z,79.00
2018-12-01T18:49:16.769Z,79.00
2018-12-01T18:51:48.420Z,79.70
2018-12-01T18:54:22.162Z,80.80
2018-12-01T18:56:56.523Z,79.70
2018-12-01T18:59:29.399Z,76.10
2018-12-01T19:02:04.884Z,79.10
2018-12-01T19:04:42.648Z,80.50
2018-12-01T19:07:20.978Z,82.10
2018-12-01T19:10:04.205Z,83.40
2018-12-01T19:12:44.174Z,85.80
2018-12-01T19:15:56.579Z,81.80
2018-12-01T19:18:28.814Z,81.70
2018-12-01T19:21:05.772Z,80.60
2018-12-01T19:23:38.830Z,81.40
2018-12-01T19:26:13.852Z,83.50
2018-12-01T19:28:49.445Z,85.00
2018-12-01T19:31:22.433Z,83.50
2018-12-01T19:33:56.023Z,81.20
2018-12-01T19:36:32.994Z,81.00
2018-12-01T19:39:06.159Z,80.00
2018-12-01T19:41:36.494Z,81.10
2018-12-01T19:44:07.351Z,79.90
2018-12-01T19:46:40.267Z,76.10
2018-12-01T19:49:09.784Z,77.60
2018-12-01T19:51:40.258Z,77.10
2018-12-01T19:54:10.206Z,75.50
2018-12-01T19:56:39.856Z,77.70
2018-12-01T19:59:11.931Z,78.10
2018-12-01T20:02:00.094Z,78.60
2018-12-01T20:04:33.218Z,77.10
2018-12-01T20:07:02.884Z,77.90
2018-12-01T20:09:33.311Z,76.30
2018-12-01T20:12:04.646Z,75.70
2018-12-01T20:14:36.203Z,75.10
2018-12-01T20:17:08.512Z,76.60
2018-12-01T20:19:39.060Z,77.90
2018-12-01T20:22:10.037Z,78.90
2018-12-01T20:24:39.469Z,80.70
2018-12-01T20:27:10.011Z,81.00
2018-12-01T20:29:41.427Z,82.50
2018-12-01T20:32:11.487Z,82.60
2018-12-01T20:34:40.923Z,81.50
2018-12-01T20:37:15.843Z,81.40
2018-12-01T20:39:46.639Z,81.10
2018-12-01T20:42:16.175Z,79.30
2018-12-01T20:44:46.182Z,77.10
2018-12-01T20:47:15.865Z,77.70
2018-12-01T20:49:47.001Z,76.50
2018-12-01T20:52:18.087Z,77.40
2018-12-01T20:54:52.137Z,77.10
2018-12-01T20:57:27.175Z,76.50
2018-12-01T21:00:00.842Z,74.70
2018-12-01T21:02:34.037Z,75.30
2018-12-01T21:05:03.490Z,77.60
2018-12-01T21:07:34.132Z,77.90
2018-12-01T21:10:06.962Z,76.50
2018-12-01T21:12:42.613Z,78.80
2018-12-01T21:15:21.581Z,79.30
2018-12-01T21:17:52.535Z,78.90
2018-12-01T21:20:25.420Z,78.80
2018-12-01T21:22:59.830Z,78.50
2018-12-01T21:25:39.272Z,79.00
2018-12-01T21:28:14.016Z,77.90
2018-12-01T21:30:48.116Z,75.50
2018-12-01T21:33:33.441Z,75.60
2018-12-01T21:38:43.256Z,75.30
2018-12-01T21:41:20.207Z,76.60
2018-12-01T21:43:51.967Z,76.60
2018-12-01T21:46:24.459Z,77.20
2018-12-01T21:48:58.129Z,76.70
2018-12-01T21:51:31.290Z,76.90
2018-12-01T21:54:03.917Z,76.00
2018-12-01T21:56:36.308Z,76.70
2018-12-01T21:59:08.153Z,75.70
2018-12-01T22:01:40.910Z,76.60
2018-12-01T22:06:50.133Z,76.90
2018-12-01T22:09:20.213Z,74.70
2018-12-01T22:11:51.888Z,72.60
2018-12-01T22:14:21.825Z,73.40
2018-12-01T22:16:53.358Z,74.40
2018-12-01T22:19:26.257Z,74.00
2018-12-01T22:21:59.007Z,74.00
2018-12-01T22:24:28.264Z,73.80
2018-12-01T22:27:02.939Z,71.90
2018-12-01T22:29:34.648Z,71.70
2018-12-01T22:32:05.433Z,72.60
2018-12-01T22:34:41.220Z,71.30
2018-12-01T22:37:13.985Z,71.90
2018-12-01T22:39:43.509Z,69.80
2018-12-01T22:42:15.181Z,71.90
2018-12-01T22:44:44.663Z,73.90
2018-12-01T22:47:15.833Z,74.70
2018-12-01T22:49:45.213Z,73.80
2018-12-01T22:52:14.576Z,75.80
2018-12-01T22:54:45.026Z,72.60
2018-12-01T22:57:15.306Z,74.90
2018-12-01T22:59:44.598Z,71.50
2018-12-01T23:02:13.999Z,63.70
2018-12-01T23:04:43.451Z,67.60
2018-12-01T23:07:12.739Z,62.60
2018-12-01T23:09:42.173Z,63.30
2018-12-01T23:12:13.494Z,62.80
2018-12-01T23:14:42.715Z,62.40
2018-12-01T23:17:12.598Z,64.90
2018-12-01T23:19:42.936Z,64.80
2018-12-01T23:22:12.379Z,64.60
2018-12-01T23:24:41.626Z,63.30
2018-12-01T23:27:11.417Z,63.00
2018-12-01T23:29:41.230Z,63.10
2018-12-01T23:32:11.656Z,63.70
2018-12-01T23:34:40.923Z,63.00
2018-12-01T23:37:12.193Z,63.70
2018-12-01T23:39:41.388Z,64.10
2018-12-01T23:42:10.810Z,60.50
2018-12-01T23:44:40.015Z,62.10
2018-12-01T23:47:10.396Z,63.50
2018-12-01T23:49:39.566Z,62.40
2018-12-01T23:52:09.896Z,64.40
2018-12-01T23:54:39.974Z,64.50
2018-12-01T23:57:10.515Z,62.70
2018-12-01T23:59:39.818Z,62.10
